Time;durP1;ratioP1;P1;durP2;ratioP2;P2;SDS_P1;SDS_P2;PMS_P1;PMS_P2;Temp;Humidity;BMP_temperature;BMP_pressure;BME280_temperature;BME280_humidity;BME280_pressure;Samples;Min_cycle;Max_cycle;Signal;HPM_P1;HPM_P2
2022/08/31 00:04:01;;;;;;;0.10;0.10;;;;;;;15.83;100.00;102181.16;10323728;28;20144;-77
2022/08/31 00:09:06;;;;;;;0.20;0.20;;;;;;;15.70;100.00;102190.34;10328711;28;20137;-76
2022/08/31 00:14:08;;;;;;;0.03;0.03;;;;;;;15.72;100.00;102183.47;10329157;28;20491;-78
2022/08/31 00:19:15;;;;;;;0.20;0.20;;;;;;;15.63;100.00;102183.22;10322413;28;20093;-78
2022/08/31 00:24:17;;;;;;;36.95;1.13;;;;;;;15.60;100.00;102184.03;10312610;28;20058;-76
2022/08/31 00:29:21;;;;;;;0.20;0.15;;;;;;;15.45;100.00;102184.50;10309982;28;20113;-77
2022/08/31 00:34:25;;;;;;;0.30;0.20;;;;;;;15.43;100.00;102181.00;10310904;28;20050;-77
2022/08/31 00:39:27;;;;;;;0.20;0.20;;;;;;;15.47;100.00;102177.63;10310632;28;20459;-77
2022/08/31 00:44:31;;;;;;;0.20;0.20;;;;;;;15.43;100.00;102178.41;10308670;28;20089;-78
2022/08/31 00:49:36;;;;;;;0.38;0.30;;;;;;;15.53;100.00;102182.97;10310190;28;20058;-78
2022/08/31 00:54:46;;;;;;;0.43;0.28;;;;;;;15.45;100.00;102183.63;10335972;28;20318;-76
2022/08/31 00:59:48;;;;;;;0.17;0.17;;;;;;;15.43;100.00;102173.22;10310828;28;20449;-77
2022/08/31 01:04:50;;;;;;;0.10;0.00;;;;;;;15.35;100.00;102173.00;10312283;28;20108;-78
2022/08/31 01:09:52;;;;;;;1.75;0.30;;;;;;;15.35;100.00;102178.19;10316309;28;20058;-77
2022/08/31 01:15:00;;;;;;;0.85;0.20;;;;;;;15.28;100.00;102170.22;10315608;28;20057;-77
2022/08/31 01:20:27;;;;;;;0.13;0.10;;;;;;;15.26;100.00;102174.47;10312596;28;20050;-77
2022/08/31 01:25:29;;;;;;;0.52;0.10;;;;;;;15.13;100.00;102173.25;10312378;28;20054;-77
2022/08/31 01:30:35;;;;;;;0.13;0.13;;;;;;;15.22;100.00;102177.00;10329815;28;20522;-78
2022/08/31 01:35:43;;;;;;;0.15;0.08;;;;;;;15.13;100.00;102174.16;10310496;28;20050;-78
2022/08/31 01:40:52;;;;;;;0.00;0.00;;;;;;;15.01;100.00;102171.19;10311410;28;20050;-77
2022/08/31 01:45:54;;;;;;;3.00;0.10;;;;;;;14.99;100.00;102165.09;10322577;28;20050;-78
2022/08/31 01:50:55;;;;;;;0.10;0.10;;;;;;;14.96;100.00;102162.41;10334320;28;20108;-78
2022/08/31 01:55:57;;;;;;;0.10;0.05;;;;;;;14.87;100.00;102168.25;10310631;28;20061;-76
2022/08/31 02:01:00;;;;;;;0.10;0.10;;;;;;;14.66;100.00;102166.78;10304318;28;20498;-77
2022/08/31 02:06:10;;;;;;;0.20;0.10;;;;;;;14.50;100.00;102173.19;10319156;28;20054;-77
2022/08/31 02:11:11;;;;;;;0.10;0.10;;;;;;;14.38;100.00;102172.81;10318069;28;20061;-78
2022/08/31 02:16:14;;;;;;;0.00;0.00;;;;;;;14.23;100.00;102179.28;10320540;28;20054;-77
2022/08/31 02:21:17;;;;;;;0.00;0.00;;;;;;;14.25;100.00;102176.75;10315476;28;20057;-78
2022/08/31 02:26:18;;;;;;;0.05;0.00;;;;;;;14.14;100.00;102179.00;10302330;28;20059;-77
2022/08/31 02:31:20;;;;;;;0.30;0.20;;;;;;;14.06;100.00;102180.47;10315949;28;20050;-77
2022/08/31 02:36:31;;;;;;;1.38;0.13;;;;;;;13.97;100.00;102175.88;10307783;28;20042;-76
2022/08/31 02:41:36;;;;;;;0.10;0.10;;;;;;;13.85;100.00;102178.06;10299054;28;20074;-76
2022/08/31 02:46:38;;;;;;;0.30;0.10;;;;;;;13.86;100.00;102172.94;10310787;28;20075;-77
2022/08/31 02:51:57;;;;;;;0.20;0.08;;;;;;;13.82;100.00;102176.25;10310903;28;20082;-77
2022/08/31 02:56:59;;;;;;;0.00;0.00;;;;;;;13.68;100.00;102173.22;10316149;28;20108;-81
2022/08/31 03:02:01;;;;;;;0.00;0.00;;;;;;;13.62;100.00;102176.47;10315941;28;20054;-80
2022/08/31 03:07:03;;;;;;;0.00;0.00;;;;;;;13.46;100.00;102181.94;10317384;28;20588;-81
2022/08/31 03:12:05;;;;;;;0.35;0.25;;;;;;;13.43;100.00;102182.72;10315438;28;20050;-81
2022/08/31 03:17:08;;;;;;;0.00;0.00;;;;;;;13.35;100.00;102178.09;10316611;28;20093;-80
2022/08/31 03:22:12;;;;;;;0.00;0.00;;;;;;;13.21;100.00;102170.72;10301912;28;20054;-81
2022/08/31 03:27:14;;;;;;;0.00;0.00;;;;;;;13.25;100.00;102167.41;10316089;28;20077;-79
2022/08/31 03:32:18;;;;;;;0.63;0.52;;;;;;;13.22;100.00;102172.47;10317394;28;20042;-80
2022/08/31 03:37:25;;;;;;;1.65;0.10;;;;;;;13.12;100.00;102166.09;10317640;28;20062;-81
2022/08/31 03:42:30;;;;;;;0.10;0.10;;;;;;;13.12;100.00;102167.81;10320024;28;20050;-80
2022/08/31 03:47:34;;;;;;;0.00;0.00;;;;;;;13.09;100.00;102159.91;10318076;28;20141;-80
2022/08/31 03:52:44;;;;;;;0.20;0.00;;;;;;;13.06;100.00;102168.47;10327356;28;20074;-80
2022/08/31 03:57:51;;;;;;;0.10;0.10;;;;;;;12.95;100.00;102168.06;10306060;28;20058;-80
2022/08/31 04:02:56;;;;;;;0.00;0.00;;;;;;;12.93;100.00;102167.13;10322980;28;20494;-80
2022/08/31 04:08:03;;;;;;;0.00;0.00;;;;;;;12.72;100.00;102169.81;10324797;28;20490;-80
2022/08/31 04:13:23;;;;;;;;;;;;;;;12.65;100.00;102171.28;10338010;28;20435;-81
2022/08/31 04:18:49;;;;;;;0.10;0.10;;;;;;;12.82;100.00;102177.06;10349090;28;19925;-81
2022/08/31 04:23:54;;;;;;;0.17;0.17;;;;;;;12.75;100.00;102175.09;10354584;28;20058;-81
2022/08/31 04:28:57;;;;;;;0.00;0.00;;;;;;;12.60;100.00;102172.81;10360500;28;20285;-81
2022/08/31 04:33:59;;;;;;;0.00;0.00;;;;;;;12.73;100.00;102165.50;10313658;28;20042;-81
2022/08/31 04:39:03;;;;;;;0.00;0.00;;;;;;;12.64;100.00;102168.66;10318959;28;20054;-80
2022/08/31 04:44:05;;;;;;;0.70;0.10;;;;;;;12.64;100.00;102166.06;10325786;28;20133;-82
2022/08/31 04:49:09;;;;;;;0.00;0.00;;;;;;;12.61;100.00;102174.59;10311902;28;20053;-80
2022/08/31 04:54:12;;;;;;;0.00;0.00;;;;;;;12.61;100.00;102176.28;10323331;28;20047;-82
2022/08/31 04:59:17;;;;;;;0.20;0.13;;;;;;;12.40;100.00;102179.81;10311201;28;20410;-82
2022/08/31 05:04:38;;;;;;;0.00;0.00;;;;;;;12.35;100.00;102181.34;10318858;28;20321;-81
2022/08/31 05:09:40;;;;;;;0.10;0.10;;;;;;;12.37;100.00;102180.56;10308688;28;20086;-81
2022/08/31 05:14:42;;;;;;;0.00;0.00;;;;;;;12.41;100.00;102183.25;10312277;28;20053;-81
2022/08/31 05:19:53;;;;;;;0.00;0.00;;;;;;;12.40;100.00;102189.28;10337109;28;20054;-81
2022/08/31 05:24:55;;;;;;;0.30;0.20;;;;;;;12.52;100.00;102194.91;10318556;28;20057;-81
2022/08/31 05:29:56;;;;;;;0.00;0.00;;;;;;;12.49;100.00;102193.09;10301110;28;20055;-81
2022/08/31 05:35:14;;;;;;;0.10;0.10;;;;;;;12.54;100.00;102190.69;10320771;28;20073;-80
2022/08/31 05:40:17;;;;;;;0.00;0.00;;;;;;;12.61;100.00;102197.84;10323346;28;20176;-81
2022/08/31 05:45:19;;;;;;;0.00;0.00;;;;;;;12.68;100.00;102191.19;10320185;28;20053;-81
2022/08/31 05:50:21;;;;;;;0.00;0.00;;;;;;;12.79;100.00;102196.78;10324100;28;20097;-80
2022/08/31 05:55:23;;;;;;;0.10;0.10;;;;;;;12.87;100.00;102205.69;10321626;28;20046;-82
2022/08/31 06:00:25;;;;;;;0.00;0.00;;;;;;;12.97;100.00;102206.91;10322301;28;20046;-80
2022/08/31 06:05:40;;;;;;;0.20;0.10;;;;;;;13.19;100.00;102213.78;10320697;28;20047;-82
2022/08/31 06:10:43;;;;;;;0.28;0.20;;;;;;;13.34;100.00;102218.59;10319521;28;20054;-80
2022/08/31 06:15:45;;;;;;;0.00;0.00;;;;;;;13.49;100.00;102216.59;10324312;28;20138;-81
2022/08/31 06:20:48;;;;;;;0.22;0.00;;;;;;;13.65;100.00;102224.88;10332932;28;20054;-81
2022/08/31 06:25:50;;;;;;;0.30;0.15;;;;;;;13.69;100.00;102228.47;10337498;28;20069;-81
2022/08/31 06:30:52;;;;;;;0.00;0.00;;;;;;;13.64;100.00;102218.84;10314835;28;20046;-81
2022/08/31 06:35:57;;;;;;;0.00;0.00;;;;;;;13.73;100.00;102212.22;10326100;28;20097;-82
2022/08/31 06:41:29;;;;;;;0.28;0.20;;;;;;;14.04;100.00;102208.03;10316250;28;20050;-84
2022/08/31 06:46:56;;;;;;;0.05;0.05;;;;;;;14.56;100.00;102209.66;10338342;28;20382;-81
2022/08/31 06:51:59;;;;;;;0.13;0.10;;;;;;;14.89;100.00;102208.97;10311394;28;20165;-82
2022/08/31 06:57:03;;;;;;;0.00;0.00;;;;;;;15.06;100.00;102213.75;10295973;28;20047;-82
2022/08/31 07:02:24;;;;;;;0.08;0.03;;;;;;;15.29;100.00;102218.72;10315123;28;20127;-79
2022/08/31 07:07:26;;;;;;;0.00;0.00;;;;;;;15.32;100.00;102223.97;10309005;28;20137;-82
2022/08/31 07:12:29;;;;;;;0.00;0.00;;;;;;;15.50;100.00;102233.97;10314243;28;20485;-82
2022/08/31 07:17:31;;;;;;;0.17;0.10;;;;;;;15.18;100.00;102249.56;10307673;28;20046;-83
2022/08/31 07:22:34;;;;;;;0.10;0.10;;;;;;;14.72;100.00;102241.28;10318069;28;20046;-83
2022/08/31 07:28:00;;;;;;;0.00;0.00;;;;;;;14.56;100.00;102243.38;10325582;28;20125;-82
2022/08/31 07:33:05;;;;;;;0.00;0.00;;;;;;;14.45;100.00;102237.00;10312103;28;20054;-82
2022/08/31 07:43:30;;;;;;;0.43;0.30;;;;;;;14.99;100.00;102250.75;10308219;28;20089;-83
2022/08/31 07:48:34;;;;;;;0.10;0.10;;;;;;;15.28;100.00;102253.28;10312552;28;20054;-81
2022/08/31 07:53:59;;;;;;;0.30;0.03;;;;;;;16.22;100.00;102241.88;10313255;28;20042;-81
2022/08/31 07:59:06;;;;;;;0.25;0.10;;;;;;;17.21;100.00;102238.84;10322757;28;20049;-83
2022/08/31 08:04:17;;;;;;;0.35;0.10;;;;;;;17.02;100.00;102242.81;10308123;28;20077;-80
2022/08/31 08:09:45;;;;;;;0.32;0.17;;;;;;;17.47;100.00;102236.75;10316472;28;20138;-81
2022/08/31 08:15:06;;;;;;;0.28;0.10;;;;;;;18.00;100.00;102242.91;10334868;28;20054;-81
2022/08/31 08:20:32;;;;;;;0.20;0.20;;;;;;;18.02;100.00;102251.66;10313111;28;20069;-81
2022/08/31 08:25:41;;;;;;;0.05;0.00;;;;;;;18.06;100.00;102243.88;10311188;28;20508;-83
2022/08/31 08:30:55;;;;;;;0.00;0.00;;;;;;;18.56;100.00;102255.06;10313192;28;20050;-81
2022/08/31 08:36:00;;;;;;;0.15;0.15;;;;;;;18.89;100.00;102256.38;10314786;28;20038;-78
2022/08/31 08:41:06;;;;;;;0.00;0.00;;;;;;;18.58;100.00;102248.13;10314086;28;20069;-81
2022/08/31 08:46:10;;;;;;;3.20;0.20;;;;;;;19.17;100.00;102243.69;10312333;28;20403;-81
2022/08/31 08:51:38;;;;;;;0.20;0.03;;;;;;;19.50;100.00;102243.19;10313966;28;20054;-81
2022/08/31 08:56:47;;;;;;;0.05;0.05;;;;;;;19.92;100.00;102237.47;10327541;28;20069;-80
2022/08/31 09:01:56;;;;;;;0.88;0.55;;;;;;;18.99;100.00;102237.38;10335502;28;20502;-83
2022/08/31 09:07:36;;;;;;;0.10;0.10;;;;;;;18.38;100.00;102240.88;10346671;28;20046;-80
2022/08/31 09:12:45;;;;;;;0.00;0.00;;;;;;;19.47;100.00;102240.53;10333404;28;20050;-79
2022/08/31 09:18:29;;;;;;;0.00;0.00;;;;;;;20.07;100.00;102235.00;10351352;28;20089;-79
2022/08/31 09:23:43;;;;;;;0.20;0.20;;;;;;;19.91;100.00;102234.00;10318762;28;20146;-78
2022/08/31 09:28:47;;;;;;;0.25;0.08;;;;;;;19.84;100.00;102226.97;10316192;28;20050;-79
2022/08/31 09:33:49;;;;;;;0.20;0.13;;;;;;;20.69;100.00;102213.53;10338151;28;20066;-79
2022/08/31 09:38:52;;;;;;;0.32;0.10;;;;;;;21.99;100.00;102205.97;10340988;28;20146;-79
2022/08/31 09:44:33;;;;;;;2.17;1.15;;;;;;;21.83;99.72;102199.84;10330592;28;20054;-78
2022/08/31 09:49:37;;;;;;;0.00;0.00;;;;;;;21.69;98.75;102207.75;10327149;28;20066;-78
2022/08/31 09:59:59;;;;;;;0.10;0.00;;;;;;;20.73;100.00;102204.88;10318259;28;20100;-78
2022/08/31 10:05:05;;;;;;;0.57;0.32;;;;;;;20.99;100.00;102204.09;10334835;28;20386;-79
2022/08/31 10:10:15;;;;;;;0.05;0.05;;;;;;;20.87;100.00;102202.28;10300280;28;20577;-79
2022/08/31 10:15:38;;;;;;;0.17;0.13;;;;;;;21.96;94.19;102190.22;10332074;28;20541;-83
2022/08/31 10:20:47;;;;;;;0.25;0.20;;;;;;;22.38;95.53;102191.00;10308001;28;20136;-80
2022/08/31 10:25:56;;;;;;;0.15;0.00;;;;;;;22.64;87.82;102203.22;10334117;28;20078;-81
2022/08/31 10:31:02;;;;;;;0.00;0.00;;;;;;;23.76;82.87;102199.03;10331023;28;20489;-80
2022/08/31 10:36:06;;;;;;;0.65;0.15;;;;;;;23.97;82.39;102199.75;10336351;28;20054;-83
2022/08/31 10:41:35;;;;;;;0.10;0.00;;;;;;;23.58;81.01;102220.22;10319655;28;20058;-80
2022/08/31 10:46:36;;;;;;;0.00;0.00;;;;;;;22.32;86.16;102212.03;10321877;28;20066;-80
2022/08/31 10:52:02;;;;;;;0.10;0.10;;;;;;;21.84;88.35;102194.63;10332920;28;20054;-78
2022/08/31 10:57:35;;;;;;;0.00;0.00;;;;;;;22.85;80.17;102198.75;10336063;28;20054;-82
2022/08/31 11:03:06;;;;;;;0.25;0.20;;;;;;;23.11;79.27;102201.22;10291560;28;20062;-83
2022/08/31 11:08:11;;;;;;;0.20;0.13;;;;;;;23.01;86.73;102197.78;10328962;28;20101;-83
2022/08/31 11:13:37;;;;;;;0.00;0.00;;;;;;;23.71;80.93;102198.22;10334999;28;20050;-80
2022/08/31 11:18:52;;;;;;;1.35;0.08;;;;;;;22.91;82.30;102190.81;10323564;28;20387;-78
2022/08/31 11:24:03;;;;;;;0.47;0.47;;;;;;;22.78;82.39;102190.91;10333129;28;20050;-81
2022/08/31 11:29:27;;;;;;;0.15;0.13;;;;;;;22.33;88.97;102187.53;10335559;28;20053;-80
2022/08/31 11:34:45;;;;;;;0.10;0.10;;;;;;;21.89;88.74;102185.88;10336264;28;20407;-82
2022/08/31 11:39:50;;;;;;;0.17;0.17;;;;;;;22.58;85.61;102188.34;10301120;28;20062;-80
2022/08/31 11:45:18;;;;;;;0.00;0.00;;;;;;;22.02;93.02;102171.84;10331481;28;20053;-81
2022/08/31 11:50:27;;;;;;;0.00;0.00;;;;;;;23.80;82.29;102173.56;10333054;28;20105;-83
2022/08/31 11:55:45;;;;;;;0.10;0.10;;;;;;;24.13;79.30;102160.97;10314273;28;20142;-81
2022/08/31 12:01:00;;;;;;;2.40;0.65;;;;;;;23.35;76.36;102168.69;10323872;28;20073;-78
2022/08/31 12:06:03;;;;;;;0.20;0.20;;;;;;;23.97;75.63;102152.38;10326123;28;20066;-79
2022/08/31 12:11:14;;;;;;;0.00;0.00;;;;;;;24.35;71.59;102144.97;10341541;28;20053;-78
2022/08/31 12:16:20;;;;;;;0.17;0.08;;;;;;;24.52;71.78;102142.97;10312674;28;20042;-82
2022/08/31 12:27:14;;;;;;;0.10;0.10;;;;;;;24.27;75.82;102150.28;10328198;28;20054;-82
2022/08/31 12:32:31;;;;;;;0.25;0.20;;;;;;;24.34;70.30;102149.34;10316091;28;20056;-82
2022/08/31 12:37:35;;;;;;;0.10;0.10;;;;;;;23.97;70.57;102141.00;10331251;28;20047;-83
2022/08/31 12:42:51;;;;;;;0.00;0.00;;;;;;;24.24;73.96;102148.56;10323836;28;20525;-82
2022/08/31 12:48:08;;;;;;;0.15;0.15;;;;;;;22.39;82.44;102145.53;10336628;28;20457;-83
2022/08/31 12:53:31;;;;;;;0.38;0.20;;;;;;;22.63;80.16;102135.81;10302416;28;20113;-80
2022/08/31 12:58:53;;;;;;;0.20;0.00;;;;;;;22.45;82.51;102140.25;10324464;28;20051;-81
2022/08/31 13:03:59;;;;;;;0.85;0.00;;;;;;;23.11;78.83;102128.53;10332866;28;20097;-82
2022/08/31 13:09:04;;;;;;;0.00;0.00;;;;;;;23.41;72.07;102123.94;10314126;28;20516;-82
2022/08/31 13:14:37;;;;;;;0.10;0.10;;;;;;;24.21;69.93;102121.41;10312700;28;20061;-84
2022/08/31 13:19:47;;;;;;;0.13;0.13;;;;;;;24.48;69.98;102116.69;10315146;28;20521;-80
2022/08/31 13:24:49;;;;;;;0.08;0.08;;;;;;;24.32;66.35;102119.50;10317312;28;20109;-80
2022/08/31 13:30:09;;;;;;;2.50;0.30;;;;;;;24.70;69.83;102104.97;10319033;28;20054;-82
2022/08/31 13:35:18;;;;;;;0.38;0.15;;;;;;;24.95;66.60;102096.72;10311976;28;20101;-80
2022/08/31 13:40:23;;;;;;;0.10;0.10;;;;;;;24.38;65.69;102093.13;10328540;28;20121;-79
2022/08/31 13:45:33;;;;;;;0.00;0.00;;;;;;;23.98;70.09;102082.22;10329776;28;20050;-78
2022/08/31 13:50:50;;;;;;;0.10;0.10;;;;;;;24.38;69.93;102076.44;10340200;28;20572;-79
2022/08/31 13:55:53;;;;;;;0.70;0.32;;;;;;;23.83;67.59;102083.19;10326590;28;20112;-77
2022/08/31 14:01:25;;;;;;;0.00;0.00;;;;;;;23.64;67.34;102078.16;10342175;28;20109;-80
2022/08/31 14:06:38;;;;;;;0.10;0.10;;;;;;;24.02;67.16;102084.75;10341260;28;20050;-83
2022/08/31 14:11:48;;;;;;;0.00;0.00;;;;;;;22.82;74.37;102084.03;10326773;28;20054;-80
2022/08/31 14:16:56;;;;;;;0.00;0.00;;;;;;;22.55;74.67;102072.81;10343554;28;20437;-79
2022/08/31 14:22:26;;;;;;;1.10;0.30;;;;;;;23.91;75.81;102070.84;10315667;28;20050;-81
2022/08/31 14:27:28;;;;;;;0.20;0.20;;;;;;;23.32;69.34;102079.31;10321742;28;20042;-80
2022/08/31 14:32:32;;;;;;;0.00;0.00;;;;;;;23.03;69.98;102079.50;10333487;28;20101;-80
2022/08/31 14:37:34;;;;;;;0.25;0.10;;;;;;;23.34;71.99;102066.16;10336044;28;20058;-79
2022/08/31 14:42:38;;;;;;;0.28;0.28;;;;;;;23.43;70.09;102061.66;10356388;28;20111;-80
2022/08/31 14:47:41;;;;;;;0.20;0.10;;;;;;;23.40;67.46;102048.56;10349703;28;20061;-79
2022/08/31 14:52:52;;;;;;;0.05;0.05;;;;;;;23.52;71.24;102046.69;10321579;28;20066;-80
2022/08/31 14:58:07;;;;;;;0.10;0.10;;;;;;;23.16;71.48;102051.38;10336146;28;20421;-80
2022/08/31 15:03:10;;;;;;;0.20;0.10;;;;;;;22.72;73.70;102059.59;10329468;28;20054;-81
2022/08/31 15:08:20;;;;;;;0.10;0.10;;;;;;;22.95;74.84;102055.94;10346554;28;20058;-81
2022/08/31 15:13:39;;;;;;;0.00;0.00;;;;;;;23.17;73.52;102047.88;10346349;28;20051;-81
2022/08/31 15:18:41;;;;;;;0.10;0.10;;;;;;;23.19;70.40;102051.41;10354755;28;20494;-82
2022/08/31 15:23:49;;;;;;;0.10;0.10;;;;;;;23.67;67.26;102046.53;10344124;28;20101;-82
2022/08/31 15:28:51;;;;;;;0.20;0.15;;;;;;;23.52;67.25;102041.44;10311935;28;20093;-82
2022/08/31 15:33:54;;;;;;;0.20;0.10;;;;;;;23.45;65.83;102038.88;10321874;28;20105;-82
2022/08/31 15:39:01;;;;;;;0.05;0.05;;;;;;;22.72;69.04;102053.44;10328228;28;20760;-85
2022/08/31 15:44:09;;;;;;;0.00;0.00;;;;;;;22.40;73.88;102047.50;10334809;28;20283;-84
2022/08/31 15:49:11;;;;;;;1.27;0.73;;;;;;;22.90;73.04;102041.94;10344268;28;20456;-83
2022/08/31 15:54:14;;;;;;;0.00;0.00;;;;;;;23.23;70.88;102032.06;10315684;28;20061;-82
2022/08/31 15:59:23;;;;;;;0.30;0.20;;;;;;;23.28;69.64;102035.50;10341785;28;20054;-81
2022/08/31 16:04:24;;;;;;;0.50;0.10;;;;;;;23.40;67.56;102031.91;10323520;28;20069;-81
2022/08/31 16:09:26;;;;;;;0.00;0.00;;;;;;;23.24;64.75;102036.44;10317119;28;20054;-81
2022/08/31 16:14:30;;;;;;;0.40;0.15;;;;;;;22.73;68.55;102039.44;10335906;28;20556;-81
2022/08/31 16:19:34;;;;;;;0.10;0.10;;;;;;;22.06;74.02;102039.78;10344332;28;20112;-82
2022/08/31 16:24:37;;;;;;;0.20;0.10;;;;;;;22.25;73.32;102037.06;10341562;28;20420;-82
2022/08/31 16:29:38;;;;;;;0.10;0.10;;;;;;;22.41;72.42;102028.25;10288267;28;20125;-80
2022/08/31 16:34:41;;;;;;;0.00;0.00;;;;;;;22.48;71.14;102032.59;10310878;28;20050;-81
2022/08/31 16:39:45;;;;;;;0.10;0.10;;;;;;;22.42;71.07;102023.88;10329642;28;20046;-81
2022/08/31 16:44:47;;;;;;;0.00;0.00;;;;;;;22.47;70.22;102022.97;10328746;28;20081;-82
2022/08/31 16:50:16;;;;;;;0.00;0.00;;;;;;;22.48;69.21;102022.09;10320833;28;20051;-80
2022/08/31 16:55:18;;;;;;;0.70;0.10;;;;;;;22.34;67.11;102029.13;10320705;28;20054;-81
2022/08/31 17:00:31;;;;;;;0.22;0.22;;;;;;;22.29;67.12;102028.31;10310420;28;20058;-82
2022/08/31 17:05:39;;;;;;;0.10;0.00;;;;;;;22.18;65.71;102046.72;10321058;28;20047;-79
2022/08/31 17:11:01;;;;;;;0.77;0.13;;;;;;;22.07;67.22;102038.91;10292503;28;20498;-80
2022/08/31 17:16:07;;;;;;;0.00;0.00;;;;;;;22.00;68.48;102034.56;10337781;28;20057;-80
2022/08/31 17:21:13;;;;;;;0.00;0.00;;;;;;;21.90;68.21;102040.69;10320365;28;20426;-79
2022/08/31 17:26:18;;;;;;;0.10;0.10;;;;;;;21.74;64.95;102046.00;10322441;28;20454;-81
2022/08/31 17:31:35;;;;;;;0.30;0.10;;;;;;;21.67;65.71;102042.50;10344499;28;20162;-80
2022/08/31 17:36:39;;;;;;;0.10;0.10;;;;;;;21.53;66.91;102049.50;10344040;28;20047;-80
2022/08/31 17:41:42;;;;;;;0.10;0.10;;;;;;;21.35;70.56;102042.53;10336517;28;20053;-79
2022/08/31 17:46:46;;;;;;;0.10;0.10;;;;;;;21.16;70.79;102047.78;10331455;28;20109;-80
2022/08/31 17:51:50;;;;;;;0.30;0.10;;;;;;;21.03;74.24;102041.66;10334855;28;20516;-79
2022/08/31 17:56:54;;;;;;;0.22;0.20;;;;;;;20.77;76.41;102046.88;10309217;28;20085;-80
2022/08/31 18:01:59;;;;;;;0.00;0.00;;;;;;;20.59;72.92;102053.78;10315293;28;20054;-79
2022/08/31 18:07:01;;;;;;;0.00;0.00;;;;;;;20.40;74.01;102055.47;10338983;28;20058;-79
2022/08/31 18:12:05;;;;;;;0.00;0.00;;;;;;;20.21;75.43;102058.91;10320078;28;20061;-79
2022/08/31 18:17:08;;;;;;;0.00;0.00;;;;;;;19.98;76.77;102057.06;10331349;28;20054;-79
2022/08/31 18:22:12;;;;;;;0.93;0.10;;;;;;;19.94;74.96;102060.53;10332771;28;20057;-79
2022/08/31 18:27:14;;;;;;;0.17;0.10;;;;;;;19.81;76.72;102062.16;10313859;28;20047;-79
2022/08/31 18:32:17;;;;;;;8.30;0.90;;;;;;;19.51;78.12;102061.09;10334450;28;20046;-79
2022/08/31 18:37:24;;;;;;;0.00;0.00;;;;;;;19.41;78.65;102069.72;10313417;28;20050;-78
2022/08/31 18:47:52;;;;;;;0.00;0.00;;;;;;;18.89;83.65;102091.88;10324814;28;20125;-78
2022/08/31 18:53:18;;;;;;;0.00;0.00;;;;;;;18.63;86.63;102100.31;10298586;28;20262;-78
2022/08/31 18:58:30;;;;;;;0.00;0.00;;;;;;;18.20;91.47;102105.00;10322373;28;20074;-80
2022/08/31 19:03:31;;;;;;;0.20;0.10;;;;;;;18.13;88.37;102100.56;10331172;28;20054;-80
2022/08/31 19:08:34;;;;;;;0.00;0.00;;;;;;;17.94;91.15;102102.84;10332594;28;20053;-79
2022/08/31 19:13:36;;;;;;;0.00;0.00;;;;;;;17.69;95.85;102104.22;10330864;28;20058;-82
2022/08/31 19:18:38;;;;;;;0.00;0.00;;;;;;;17.42;94.69;102114.22;10325644;28;20062;-81
2022/08/31 19:23:39;;;;;;;0.00;0.00;;;;;;;17.44;93.65;102111.63;10323894;28;20457;-81
2022/08/31 19:28:45;;;;;;;0.00;0.00;;;;;;;17.32;94.25;102127.94;10312261;28;20050;-81
2022/08/31 19:33:49;;;;;;;0.10;0.00;;;;;;;17.04;100.00;102127.44;10306400;28;20058;-81
2022/08/31 19:38:58;;;;;;;0.00;0.00;;;;;;;16.86;97.85;102124.47;10327206;28;20061;-82
2022/08/31 19:44:01;;;;;;;0.00;0.00;;;;;;;16.63;100.00;102130.09;10311938;28;20311;-83
2022/08/31 19:49:10;;;;;;;0.00;0.00;;;;;;;16.54;100.00;102129.88;10335338;28;20065;-83
2022/08/31 19:54:11;;;;;;;0.10;0.00;;;;;;;16.23;100.00;102129.22;10329593;28;20050;-82
2022/08/31 19:59:19;;;;;;;0.03;0.00;;;;;;;15.86;100.00;102132.75;10310326;28;20109;-83
2022/08/31 20:04:25;;;;;;;0.00;0.00;;;;;;;15.42;100.00;102148.09;10328348;28;20062;-82
2022/08/31 20:09:27;;;;;;;0.22;0.15;;;;;;;15.34;100.00;102149.59;10327619;28;20053;-82
2022/08/31 20:14:29;;;;;;;0.35;0.22;;;;;;;15.46;100.00;102138.66;10311520;28;20058;-82
2022/08/31 20:19:33;;;;;;;0.30;0.30;;;;;;;14.97;100.00;102144.28;10327756;28;20054;-82
2022/08/31 20:24:39;;;;;;;0.00;0.00;;;;;;;14.93;100.00;102144.19;10329078;28;20105;-82
2022/08/31 20:29:45;;;;;;;0.22;0.10;;;;;;;14.77;100.00;102141.16;10336414;28;20073;-82
2022/08/31 20:34:49;;;;;;;0.35;0.28;;;;;;;14.53;100.00;102147.34;10294555;28;20101;-82
2022/08/31 20:39:51;;;;;;;0.20;0.10;;;;;;;14.32;100.00;102142.41;10310980;28;20565;-81
2022/08/31 20:44:54;;;;;;;3.40;0.17;;;;;;;14.12;100.00;102142.69;10327924;28;20062;-82
2022/08/31 20:50:01;;;;;;;0.10;0.10;;;;;;;14.47;100.00;102141.09;10333547;28;20054;-82
2022/08/31 20:55:05;;;;;;;0.00;0.00;;;;;;;14.57;100.00;102144.00;10345160;28;20073;-81
2022/08/31 21:00:09;;;;;;;0.00;0.00;;;;;;;14.32;100.00;102144.13;10334207;28;20509;-82
2022/08/31 21:05:14;;;;;;;0.10;0.10;;;;;;;14.44;100.00;102147.06;10334217;28;20050;-82
2022/08/31 21:10:38;;;;;;;0.00;0.00;;;;;;;15.19;100.00;102145.75;10335697;28;20149;-83
2022/08/31 21:15:43;;;;;;;0.65;0.20;;;;;;;15.23;100.00;102150.19;10319036;28;20062;-82
2022/08/31 21:20:45;;;;;;;0.22;0.03;;;;;;;15.08;100.00;102149.75;10335233;28;20514;-81
2022/08/31 21:25:47;;;;;;;0.00;0.00;;;;;;;15.12;100.00;102149.03;10334886;28;20046;-81
2022/08/31 21:30:51;;;;;;;0.00;0.00;;;;;;;15.29;100.00;102146.00;10335730;28;20464;-82
2022/08/31 21:36:01;;;;;;;0.00;0.00;;;;;;;15.40;100.00;102152.34;10317100;28;20050;-83
2022/08/31 21:41:04;;;;;;;0.00;0.00;;;;;;;15.28;100.00;102160.69;10336790;28;20089;-81
2022/08/31 21:46:12;;;;;;;0.30;0.10;;;;;;;15.38;100.00;102151.41;10317892;28;20058;-82
2022/08/31 21:51:16;;;;;;;0.30;0.28;;;;;;;15.26;100.00;102161.50;10337043;28;20066;-81
2022/08/31 21:56:20;;;;;;;0.57;0.32;;;;;;;15.03;100.00;102161.75;10328106;28;20437;-81
2022/08/31 22:01:23;;;;;;;0.00;0.00;;;;;;;15.07;100.00;102158.41;10342513;28;20125;-82
2022/08/31 22:06:30;;;;;;;0.00;0.00;;;;;;;14.90;100.00;102165.72;10339273;28;20050;-82
2022/08/31 22:11:38;;;;;;;0.20;0.00;;;;;;;14.82;100.00;102175.88;10329838;28;20086;-81
2022/08/31 22:16:39;;;;;;;0.00;0.00;;;;;;;14.73;100.00;102181.69;10333669;28;20112;-82
2022/08/31 22:21:48;;;;;;;0.00;0.00;;;;;;;14.61;100.00;102183.88;10310576;28;20513;-82
2022/08/31 22:26:50;;;;;;;0.13;0.10;;;;;;;14.66;100.00;102184.94;10319655;28;20061;-81
2022/08/31 22:31:56;;;;;;;0.00;0.00;;;;;;;14.63;100.00;102190.00;10335409;28;20054;-82
2022/08/31 22:36:58;;;;;;;0.00;0.00;;;;;;;14.52;100.00;102187.09;10319143;28;20042;-81
2022/08/31 22:42:03;;;;;;;6.40;0.45;;;;;;;14.58;100.00;102189.84;10317314;28;20494;-82
2022/08/31 22:47:05;;;;;;;0.10;0.10;;;;;;;14.52;100.00;102189.69;10315961;28;20433;-83
2022/08/31 22:52:06;;;;;;;3.30;1.55;;;;;;;14.43;100.00;102187.69;10314842;28;20497;-82
2022/08/31 22:57:08;;;;;;;0.03;0.00;;;;;;;14.43;100.00;102191.97;10320411;28;20046;-82
2022/08/31 23:02:09;;;;;;;0.10;0.08;;;;;;;14.42;100.00;102198.00;10300087;28;20112;-82
2022/08/31 23:07:15;;;;;;;0.05;0.03;;;;;;;14.32;100.00;102203.75;10314396;28;20050;-81
2022/08/31 23:12:16;;;;;;;0.00;0.00;;;;;;;14.27;100.00;102201.88;10296680;28;20429;-81
2022/08/31 23:17:18;;;;;;;0.25;0.08;;;;;;;14.23;100.00;102194.84;10327745;28;20046;-82
2022/08/31 23:22:20;;;;;;;0.13;0.10;;;;;;;14.17;100.00;102197.25;10330828;28;20050;-82
2022/08/31 23:28:04;;;;;;;0.10;0.10;;;;;;;14.12;100.00;102191.91;10313133;28;20080;-82
2022/08/31 23:33:21;;;;;;;0.00;0.00;;;;;;;13.96;100.00;102179.28;10305458;28;20062;-82
2022/08/31 23:38:24;;;;;;;0.10;0.00;;;;;;;13.92;100.00;102183.50;10328243;28;20138;-82
2022/08/31 23:43:25;;;;;;;0.20;0.17;;;;;;;13.67;100.00;102189.56;10318078;28;20050;-82
2022/08/31 23:48:27;;;;;;;0.30;0.22;;;;;;;13.70;100.00;102183.63;10322942;28;20058;-82